createdAt,value
2023-02-23T00:04:48.083Z,11.3
2023-02-23T00:09:48.042Z,11.4
2023-02-23T00:15:37.860Z,11.3
2023-02-23T00:20:48.084Z,11.3
2023-02-23T00:26:37.733Z,11.2
2023-02-23T00:31:37.899Z,11.3
2023-02-23T00:36:48.043Z,11.3
2023-02-23T00:41:48.054Z,11.3
2023-02-23T00:47:37.759Z,11.3
2023-02-23T00:52:37.785Z,11.2
2023-02-23T00:57:37.767Z,11.2
2023-02-23T01:02:37.810Z,11.2
2023-02-23T01:07:48.184Z,11.2
2023-02-23T01:13:37.750Z,11.2
2023-02-23T01:18:48.065Z,11.2
2023-02-23T01:24:37.790Z,10.9
2023-02-23T01:29:48.046Z,10.8
2023-02-23T01:35:37.762Z,10.8
2023-02-23T01:40:37.900Z,10.4
2023-02-23T01:45:48.087Z,10.4
2023-02-23T01:50:48.036Z,10.2
2023-02-23T01:56:37.795Z,9.8
2023-02-23T02:01:48.205Z,9.6
2023-02-23T02:07:37.764Z,9.6
2023-02-23T02:12:48.070Z,9.8
2023-02-23T02:17:48.061Z,9.7
2023-02-23T02:22:58.336Z,9.7
2023-02-23T02:28:37.827Z,9.7
2023-02-23T02:33:37.784Z,9.7
2023-02-23T02:38:48.032Z,9.9
2023-02-23T02:43:48.080Z,10
2023-02-23T02:49:37.757Z,10
2023-02-23T02:54:48.053Z,9.9
2023-02-23T03:00:37.810Z,10
2023-02-23T03:05:37.782Z,10
2023-02-23T03:10:48.041Z,10.1
2023-02-23T03:15:48.123Z,9.9
2023-02-23T03:21:37.763Z,9.9
2023-02-23T03:26:37.784Z,9.8
2023-02-23T03:31:37.990Z,9.9
2023-02-23T03:36:48.071Z,10
2023-02-23T03:41:48.084Z,10.1
2023-02-23T03:47:37.787Z,10.1
2023-02-23T03:52:37.778Z,10
2023-02-23T03:57:48.047Z,10.1
2023-02-23T04:02:48.112Z,10.5
2023-02-23T04:08:37.791Z,10.4
2023-02-23T04:13:48.066Z,10.6
2023-02-23T04:18:48.210Z,10.7
2023-02-23T04:24:37.769Z,10.7
2023-02-23T04:29:37.774Z,10.9
2023-02-23T04:34:37.831Z,10.9
2023-02-23T04:39:48.060Z,10.9
2023-02-23T04:45:37.846Z,11
2023-02-23T04:50:48.082Z,11.1
2023-02-23T04:56:37.778Z,11.1
2023-02-23T05:01:48.057Z,11.1
2023-02-23T05:06:48.105Z,11.1
2023-02-23T05:12:37.770Z,11.1
2023-02-23T05:17:37.772Z,11.1
2023-02-23T05:22:37.815Z,11.1
2023-02-23T05:27:37.809Z,10.9
2023-02-23T05:32:37.797Z,10.9
2023-02-23T05:37:37.801Z,10.9
2023-02-23T05:42:37.896Z,10.9
2023-02-23T05:47:48.087Z,10.9
2023-02-23T05:53:37.767Z,10.9
2023-02-23T05:58:37.899Z,10.8
2023-02-23T06:03:48.240Z,10.8
2023-02-23T06:08:48.070Z,10.8
2023-02-23T06:14:37.945Z,10.8
2023-02-23T06:19:37.789Z,10.8
2023-02-23T06:24:48.071Z,10.8
2023-02-23T06:30:38.034Z,10.8
2023-02-23T06:35:37.790Z,10.8
2023-02-23T06:40:48.085Z,10.7
2023-02-23T06:45:48.129Z,10.7
2023-02-23T06:51:37.836Z,10.7
2023-02-23T06:56:37.811Z,10.8
2023-02-23T07:01:48.202Z,10.8
2023-02-23T07:06:48.088Z,10.7
2023-02-23T07:12:37.777Z,10.8
2023-02-23T07:17:48.172Z,10.8
2023-02-23T07:22:48.063Z,10.7
2023-02-23T07:28:37.751Z,10.7
2023-02-23T07:33:37.813Z,10.7
2023-02-23T07:38:37.845Z,10.7
2023-02-23T07:43:48.149Z,10.8
2023-02-23T07:49:37.829Z,10.7
2023-02-23T07:54:48.087Z,10.7
2023-02-23T08:00:37.790Z,10.8
2023-02-23T08:05:48.085Z,10.8
2023-02-23T08:10:49.853Z,10.8
2023-02-23T08:16:37.990Z,10.9
2023-02-23T08:21:48.102Z,10.9
2023-02-23T08:26:48.103Z,11
2023-02-23T08:32:37.915Z,11
2023-02-23T08:37:48.108Z,11
2023-02-23T08:43:37.800Z,10.9
2023-02-23T08:48:37.819Z,11
2023-02-23T08:53:48.097Z,11
2023-02-23T08:58:48.074Z,11.1
2023-02-23T09:03:48.080Z,11.2
2023-02-23T09:08:48.094Z,11.2
2023-02-23T09:13:48.192Z,11.2
2023-02-23T09:18:48.103Z,11.3
2023-02-23T09:23:48.180Z,11.3
2023-02-23T09:29:37.832Z,11.4
2023-02-23T09:34:48.081Z,11.4
2023-02-23T09:40:37.812Z,11.4
2023-02-23T09:45:37.835Z,11.4
2023-02-23T09:50:48.064Z,11.4
2023-02-23T09:56:37.813Z,11.4
2023-02-23T10:01:48.263Z,11.4
2023-02-23T10:07:37.804Z,11.4
2023-02-23T10:12:48.074Z,11.4
2023-02-23T10:18:46.527Z,11.5
2023-02-23T10:23:48.062Z,11.6
2023-02-23T10:28:48.072Z,11.6
2023-02-23T10:33:48.146Z,11.7
2023-02-23T10:39:37.815Z,11.9
2023-02-23T10:44:37.800Z,11.9
2023-02-23T10:49:48.130Z,11.6
2023-02-23T10:55:37.812Z,11.8
2023-02-23T11:00:37.968Z,11.9
2023-02-23T11:05:48.145Z,11.8
2023-02-23T11:11:37.797Z,11.8
2023-02-23T11:16:37.982Z,11.9
2023-02-23T11:21:37.956Z,12
2023-02-23T11:26:48.124Z,12.3
2023-02-23T11:31:48.175Z,12.5
2023-02-23T11:36:48.137Z,12.7
2023-02-23T11:41:48.095Z,12.9
2023-02-23T11:47:37.868Z,12.8
2023-02-23T11:52:48.108Z,12.8
2023-02-23T11:57:48.110Z,12.8
2023-02-23T12:03:37.791Z,12.8
2023-02-23T12:08:37.854Z,12.9
2023-02-23T12:13:48.079Z,12.9
2023-02-23T12:18:48.088Z,12.6
2023-02-23T12:23:49.175Z,12.5
2023-02-23T12:29:37.810Z,12.5
2023-02-23T12:34:37.825Z,12.5
2023-02-23T12:39:48.136Z,12.5
2023-02-23T12:45:37.850Z,12.3
2023-02-23T12:50:48.072Z,12.2
2023-02-23T12:55:48.228Z,12
2023-02-23T13:00:50.449Z,12.1
2023-02-23T13:06:37.787Z,12.1
2023-02-23T13:11:37.920Z,12
2023-02-23T13:16:48.288Z,11.9
2023-02-23T13:22:37.821Z,11.8
2023-02-23T13:27:48.119Z,11.7
2023-02-23T13:32:48.331Z,11.9
2023-02-23T13:38:37.812Z,12
2023-02-23T13:43:48.136Z,12
2023-02-23T13:49:37.808Z,12
2023-02-23T13:54:48.329Z,11.8
2023-02-23T14:00:37.912Z,11.8
2023-02-23T14:05:48.116Z,11.7
2023-02-23T14:11:37.806Z,11.5
2023-02-23T14:16:37.930Z,11.4
2023-02-23T14:21:48.104Z,11.1
2023-02-23T14:27:41.766Z,10.9
2023-02-23T14:32:37.986Z,11
2023-02-23T14:37:37.867Z,11
2023-02-23T14:42:48.126Z,11
2023-02-23T14:47:48.295Z,11
2023-02-23T14:52:58.410Z,10.9
2023-02-23T14:58:37.848Z,11
2023-02-23T15:03:48.138Z,10.8
2023-02-23T15:09:37.841Z,10.8
2023-02-23T15:14:48.105Z,10.8
2023-02-23T15:19:48.142Z,10.8
2023-02-23T15:25:37.835Z,10.7
2023-02-23T15:30:48.103Z,10.7
2023-02-23T15:35:48.197Z,10.7
2023-02-23T15:41:37.816Z,10.7
2023-02-23T15:46:37.869Z,10.7
2023-02-23T15:51:37.959Z,10.7
2023-02-23T15:56:48.160Z,10.7
2023-02-23T16:02:37.847Z,10.7
2023-02-23T16:07:37.910Z,10.7
2023-02-23T16:12:48.096Z,10.7
2023-02-23T16:17:48.180Z,10.7
2023-02-23T16:23:37.856Z,10.7
2023-02-23T16:28:37.859Z,10.7
2023-02-23T16:33:48.104Z,10.6
2023-02-23T16:38:48.187Z,10.6
2023-02-23T16:43:48.130Z,10.5
2023-02-23T16:49:37.844Z,10.5
2023-02-23T16:54:37.899Z,10.5
2023-02-23T16:59:48.114Z,10.4
2023-02-23T17:04:48.176Z,10.4
2023-02-23T17:10:37.863Z,10.4
2023-02-23T17:15:37.826Z,10.4
2023-02-23T17:20:48.125Z,10.3
2023-02-23T17:26:37.858Z,10.3
2023-02-23T17:31:48.310Z,10.1
2023-02-23T17:36:48.145Z,10
2023-02-23T17:42:37.856Z,10
2023-02-23T17:47:37.829Z,10
2023-02-23T17:52:48.135Z,10.1
2023-02-23T17:58:37.978Z,10
2023-02-23T18:03:48.127Z,10
2023-02-23T18:08:48.126Z,10
2023-02-23T18:14:37.882Z,10
2023-02-23T18:19:37.864Z,10
2023-02-23T18:24:48.118Z,10
2023-02-23T18:30:37.848Z,9.9
2023-02-23T18:35:37.868Z,9.7
2023-02-23T18:40:48.112Z,9.7
2023-02-23T18:45:48.149Z,9.8
2023-02-23T18:50:48.126Z,9.7
2023-02-23T18:56:37.843Z,9.7
2023-02-23T19:01:37.885Z,9.4
2023-02-23T19:06:48.132Z,9.4
2023-02-23T19:12:37.830Z,9.4
2023-02-23T19:17:37.880Z,9.5
2023-02-23T19:22:37.869Z,9.5
2023-02-23T19:27:48.116Z,9.5
2023-02-23T19:32:48.463Z,9.5
2023-02-23T19:38:37.868Z,9.5
2023-02-23T19:43:44.954Z,9.5
2023-02-23T19:48:48.198Z,9.5
2023-02-23T19:53:48.127Z,9.5
2023-02-23T19:58:48.127Z,9.5
2023-02-23T20:03:48.129Z,9.5
2023-02-23T20:08:48.194Z,9.5
2023-02-23T20:14:39.599Z,9.5
2023-02-23T20:19:37.872Z,9.5
2023-02-23T20:24:48.148Z,9.5
2023-02-23T20:29:48.128Z,9.4
2023-02-23T20:35:37.825Z,9.4
2023-02-23T20:40:37.866Z,9.4
2023-02-23T20:45:37.913Z,9.3
2023-02-23T20:50:48.124Z,9.4
2023-02-23T20:55:48.162Z,9.3
2023-02-23T21:01:38.023Z,9.4
2023-02-23T21:06:48.121Z,9.3
2023-02-23T21:12:37.854Z,9.3
2023-02-23T21:17:37.834Z,9.1
2023-02-23T21:22:37.958Z,9.1
2023-02-23T21:27:48.163Z,8.9
2023-02-23T21:33:37.861Z,8.6
2023-02-23T21:38:48.156Z,8.7
2023-02-23T21:44:37.859Z,8.8
2023-02-23T21:49:37.868Z,8.8
2023-02-23T21:54:48.112Z,8.8
2023-02-23T21:59:48.145Z,9
2023-02-23T22:04:48.129Z,9.1
2023-02-23T22:09:48.138Z,8.8
2023-02-23T22:15:37.903Z,9
2023-02-23T22:20:37.853Z,9.1
2023-02-23T22:25:48.131Z,9
2023-02-23T22:30:48.162Z,9
2023-02-23T22:35:48.144Z,8.9
2023-02-23T22:41:37.863Z,8.9
2023-02-23T22:46:48.499Z,8.8
2023-02-23T22:51:48.158Z,8.9
2023-02-23T22:57:37.882Z,8.8
2023-02-23T23:02:48.154Z,8.8
2023-02-23T23:07:48.156Z,8.8
2023-02-23T23:12:48.132Z,8.8
2023-02-23T23:17:48.499Z,8.8
2023-02-23T23:23:37.859Z,8.7
2023-02-23T23:28:37.851Z,8.5
2023-02-23T23:33:48.130Z,8.4
2023-02-23T23:39:37.887Z,8.2
2023-02-23T23:44:48.127Z,8.2
2023-02-23T23:49:48.459Z,8.2
2023-02-23T23:55:37.924Z,8.3
